Fairfield, IL

10:56 AM CDT on May 23, 2015 (GMT -0500)
Carmi Municipal | | Change Station
CLOSE
Current Station
Airport
Location: Carmi,
Elevation: 387 ft
Nearby Weather Stations

Elev 387 ft 38.09 °N, 88.12 °W | Updated 21 minutes ago

Partly Cloudy
Partly Cloudy
74 °F
Feels Like 74 °F
N
7
Wind Variable Wind from ESE

Today
High -- | Low -- °F
--% Chance of Precip.
Yesterday
High -- | Low -- °F
Precip. -- in
5:36 AM 8:04 PM
Waxing Crescent, 31% visible
Pressure 30.35 in
Visibility 10.0 miles
Clouds Clear
Dew Point 47 °F
Humidity 37%
Rainfall 0.00 in
Snow Depth Not available.
UV 9 out of 12
Pollen 8.20 out of 12
Air Quality Not available.
Flu Activity Sporadic
METAR KCUL 231535Z AUTO 11006KT 10SM CLR 24/08 A3035 RMK AO2 T02350082

More Conditions Fewer Conditions

Pressure 30.35 in
Visibility 10.0 miles
Clouds Clear
Dew Point 47 °F
Humidity 37%
Rainfall 0.00 in
Snow Depth Not available.
UV 9 out of 12
Pollen 8.20 out of 12
Air Quality Not available.
Flu Activity Sporadic
METAR KCUL 231535Z AUTO 11006KT 10SM CLR 24/08 A3035 RMK AO2 T02350082

More Conditions Fewer Conditions

10-Day Weather Forecast

Almanac

Astronomy

May. 23, 2015 Rise Set
Actual Time
Civil Twilight
Nautical Twilight
Astronomical Twilight
Moon
Length of Visible Light
Length of Day
Tomorrow will be .
, % of the Moon is Illuminated

Today's Extremes

State Highs State Lows

Community

WunderPhotos

Upload Photos

1,823,504 photos uploaded!

WunderBlogs® & News

Nearby

Air Quality

  Air Quality AQ Index Pollutant
Not available.

Snow Depth

Station Depth Elevation

Earthquake Activity

City Distance Mag. Time & Date
Minimum magnitude displayed is 2.5.

Coastal Water Temperatures

Place Temperature

Stations

Nearby Weather Stations

Station Location Temp. Windchill Dew Point Humidity Wind Precip. Elev Updated Type